Terminal Aerodrome Forecast
Issued by NWS

Home | Current Version | Previous Version | Text Only | Print | Product List | Glossary On
Versions: 1 2 3 4 5 6 7 8 9 10 11 12 13 14 15 16 17 18 19 20 21 22 23 24 25 26 27 28
243
FTUS45 KPSR 212323
TAFIWA
TAF
KIWA 212323Z 2200/2224 31007KT P6SM FEW250
     FM220300 VRB03KT P6SM SKC
     FM220700 10006KT P6SM SKC
     FM222000 30005KT P6SM SKC
      AMD LTD TO CLD VIS AND WIND=

USA.gov is the U.S. government's official web portal to all federal, state and local government web resources and services.